Time;durP1;ratioP1;P1;durP2;ratioP2;P2;SDS_P1;SDS_P2;PMS_P1;PMS_P2;Temp;Humidity;BMP_temperature;BMP_pressure;BME280_temperature;BME280_humidity;BME280_pressure;Samples;Min_cycle;Max_cycle;Signal;HPM_P1;HPM_P2
2023/12/15 00:00:33;;;;;;;9.20;8.07;;;6.80;59.00;;;;;;5056974;28;20655;-87
2023/12/15 00:02:59;;;;;;;9.97;8.30;;;6.80;58.80;;;;;;5062731;28;20192;-86
2023/12/15 00:05:24;;;;;;;10.43;8.33;;;6.90;58.70;;;;;;5064429;28;20185;-87
2023/12/15 00:07:50;;;;;;;10.00;8.13;;;6.70;58.30;;;;;;5068121;28;20186;-87
2023/12/15 00:10:15;;;;;;;10.13;8.70;;;6.70;58.20;;;;;;5057784;28;20201;-87
2023/12/15 00:12:42;;;;;;;10.97;8.63;;;6.70;58.60;;;;;;5057487;28;20182;-87
2023/12/15 00:15:09;;;;;;;10.53;8.83;;;6.80;58.40;;;;;;5061481;28;20265;-86
2023/12/15 00:17:34;;;;;;;11.00;9.00;;;6.60;58.30;;;;;;5060040;28;20185;-86
2023/12/15 00:20:00;;;;;;;11.87;8.70;;;6.60;58.50;;;;;;5063237;28;20189;-86
2023/12/15 00:22:25;;;;;;;10.80;9.50;;;6.70;58.40;;;;;;5058841;28;20208;-87
2023/12/15 00:24:51;;;;;;;12.33;9.30;;;6.70;58.60;;;;;;5063447;28;20235;-86
2023/12/15 00:27:16;;;;;;;10.47;9.20;;;6.70;58.60;;;;;;5057729;28;20276;-86
2023/12/15 00:29:42;;;;;;;12.13;9.13;;;6.60;58.30;;;;;;5068899;28;20295;-86
2023/12/15 00:32:08;;;;;;;10.53;8.90;;;6.70;58.30;;;;;;5066627;28;20178;-86
2023/12/15 00:34:33;;;;;;;10.73;8.77;;;6.70;58.40;;;;;;5070783;28;20531;-86
2023/12/15 00:36:59;;;;;;;10.87;9.03;;;6.70;58.50;;;;;;5066635;28;20239;-85
2023/12/15 00:39:25;;;;;;;10.27;8.80;;;6.70;58.40;;;;;;5056278;28;20342;-86
2023/12/15 00:41:50;;;;;;;12.10;10.00;;;6.70;58.50;;;;;;5060894;28;20185;-86
2023/12/15 00:44:16;;;;;;;11.17;9.07;;;6.70;58.40;;;;;;5080414;28;20189;-85
2023/12/15 00:46:41;;;;;;;10.80;8.63;;;6.80;58.60;;;;;;5068097;28;20182;-86
2023/12/15 00:49:07;;;;;;;11.00;8.93;;;6.80;58.50;;;;;;5057944;28;20181;-85
2023/12/15 00:51:33;;;;;;;12.23;9.70;;;6.80;58.40;;;;;;5053588;28;20282;-86
2023/12/15 00:53:58;;;;;;;12.13;9.93;;;6.80;58.30;;;;;;5061243;28;20188;-85
2023/12/15 00:56:24;;;;;;;15.67;11.00;;;6.90;58.30;;;;;;5067572;28;20188;-85
2023/12/15 00:58:50;;;;;;;15.03;11.27;;;6.80;58.10;;;;;;5054424;28;20229;-84
2023/12/15 01:01:15;;;;;;;15.03;11.23;;;6.80;58.20;;;;;;5070123;28;20181;-86
2023/12/15 01:03:41;;;;;;;13.90;11.40;;;6.90;58.20;;;;;;5052759;28;20178;-85
2023/12/15 01:06:09;;;;;;;13.83;11.57;;;6.70;58.00;;;;;;5064487;28;20217;-86
2023/12/15 01:08:34;;;;;;;16.60;12.70;;;6.70;58.10;;;;;;5083470;28;20188;-85
2023/12/15 01:11:00;;;;;;;16.43;12.07;;;6.70;58.10;;;;;;5082296;28;20218;-85
2023/12/15 01:13:26;;;;;;;16.23;12.67;;;6.70;58.30;;;;;;5050851;28;20231;-85
2023/12/15 01:19:15;;;;;;;15.47;12.47;;;6.70;58.60;;;;;;5051387;28;20703;-85
2023/12/15 01:21:40;;;;;;;17.00;13.13;;;6.70;58.30;;;;;;5079323;28;20192;-85
2023/12/15 01:24:06;;;;;;;18.27;13.57;;;6.70;58.30;;;;;;5077477;28;20185;-85
2023/12/15 01:26:31;;;;;;;17.00;12.93;;;6.80;58.30;;;;;;5064155;28;20188;-85
2023/12/15 01:28:57;;;;;;;17.37;13.17;;;6.80;58.30;;;;;;5084743;28;20188;-85
2023/12/15 01:31:23;;;;;;;17.67;12.23;;;6.70;58.30;;;;;;5069102;28;20248;-85
2023/12/15 01:33:48;;;;;;;16.83;13.07;;;6.70;58.30;;;;;;5069884;28;20177;-85
2023/12/15 01:36:16;;;;;;;13.57;11.23;;;6.70;58.20;;;;;;5065454;28;20181;-85
2023/12/15 01:38:42;;;;;;;14.33;11.83;;;6.70;58.00;;;;;;5077261;28;20186;-85
2023/12/15 01:41:07;;;;;;;16.00;12.50;;;6.70;58.00;;;;;;5060372;28;20189;-86
2023/12/15 01:43:33;;;;;;;15.63;12.10;;;6.70;58.00;;;;;;5070424;28;20197;-86
2023/12/15 01:45:59;;;;;;;16.30;12.23;;;6.70;58.10;;;;;;5057237;28;20260;-85
2023/12/15 01:48:25;;;;;;;13.80;11.03;;;6.70;57.90;;;;;;5062041;28;20645;-85
2023/12/15 01:50:51;;;;;;;17.30;12.77;;;6.70;58.10;;;;;;5061393;28;20738;-86
2023/12/15 01:53:16;;;;;;;14.07;11.70;;;6.70;58.00;;;;;;5084449;28;20585;-85
2023/12/15 01:55:43;;;;;;;15.97;11.43;;;6.80;58.20;;;;;;5066757;28;20217;-86
2023/12/15 01:58:11;;;;;;;14.73;11.03;;;6.80;58.30;;;;;;5055301;28;20287;-85
2023/12/15 02:00:37;;;;;;;13.80;11.67;;;6.70;58.00;;;;;;5067344;28;20955;-85
2023/12/15 02:03:03;;;;;;;14.80;11.33;;;6.70;58.40;;;;;;5081979;28;20242;-85
2023/12/15 02:05:28;;;;;;;15.57;11.73;;;6.60;57.70;;;;;;5077982;28;20306;-85
2023/12/15 02:07:54;;;;;;;15.20;11.63;;;6.60;57.70;;;;;;5086722;28;20185;-86
2023/12/15 02:10:20;;;;;;;13.73;11.23;;;6.70;57.80;;;;;;5081789;28;20258;-85
2023/12/15 02:12:46;;;;;;;14.17;11.17;;;6.60;57.80;;;;;;5083620;28;20215;-85
2023/12/15 02:15:11;;;;;;;13.97;11.43;;;6.60;57.60;;;;;;5072740;28;20185;-86
2023/12/15 02:17:38;;;;;;;15.37;11.30;;;6.60;57.50;;;;;;5072466;28;20177;-85
2023/12/15 02:20:04;;;;;;;15.40;11.10;;;6.50;57.40;;;;;;5059026;28;20186;-85
2023/12/15 02:22:30;;;;;;;14.37;11.33;;;6.50;57.70;;;;;;5073884;28;20205;-85
2023/12/15 02:24:56;;;;;;;13.70;10.63;;;6.60;57.80;;;;;;5069345;28;20216;-86
2023/12/15 02:27:21;;;;;;;14.27;10.70;;;6.60;57.60;;;;;;5063991;28;20177;-85
2023/12/15 02:29:47;;;;;;;14.50;10.73;;;6.60;57.80;;;;;;5061409;28;20231;-85
2023/12/15 02:32:12;;;;;;;14.13;11.63;;;6.70;57.80;;;;;;5059587;28;20185;-86
2023/12/15 02:34:38;;;;;;;14.50;11.27;;;6.60;57.60;;;;;;5073171;28;20201;-85
2023/12/15 02:37:04;;;;;;;14.53;11.03;;;6.60;57.60;;;;;;5062256;28;20170;-85
2023/12/15 02:39:29;;;;;;;14.63;11.23;;;6.60;57.70;;;;;;5060230;28;20608;-85
2023/12/15 02:41:55;;;;;;;14.47;11.50;;;6.60;57.60;;;;;;5069709;28;20198;-85
2023/12/15 02:44:20;;;;;;;13.43;10.70;;;6.50;57.60;;;;;;5059099;28;20192;-85
2023/12/15 02:46:46;;;;;;;16.27;11.93;;;6.60;57.90;;;;;;5087813;28;20173;-85
2023/12/15 02:49:12;;;;;;;15.87;11.47;;;6.60;57.90;;;;;;5074310;28;20222;-85
2023/12/15 02:51:37;;;;;;;15.73;11.43;;;6.60;57.80;;;;;;5066026;28;20704;-85
2023/12/15 02:54:03;;;;;;;13.87;10.83;;;6.60;57.90;;;;;;5081948;28;20219;-85
2023/12/15 02:56:29;;;;;;;12.93;10.80;;;6.60;57.90;;;;;;5066053;28;20193;-85
2023/12/15 02:58:54;;;;;;;14.53;10.77;;;6.60;58.00;;;;;;5069038;28;20224;-86
2023/12/15 03:01:20;;;;;;;13.50;10.47;;;6.80;58.20;;;;;;5057565;28;20182;-85
2023/12/15 03:03:46;;;;;;;13.77;10.87;;;6.70;58.00;;;;;;5061842;28;20197;-85
2023/12/15 03:06:12;;;;;;;16.93;11.27;;;6.70;58.00;;;;;;5079563;28;20188;-85
2023/12/15 03:08:37;;;;;;;15.00;12.47;;;6.80;58.10;;;;;;5058399;28;20272;-85
2023/12/15 03:11:03;;;;;;;16.03;11.43;;;6.70;57.90;;;;;;5064584;28;20638;-85
2023/12/15 03:13:29;;;;;;;13.77;10.80;;;6.70;57.70;;;;;;5078193;28;20264;-85
2023/12/15 03:16:11;;;;;;;14.50;11.57;;;6.70;57.80;;;;;;5057938;28;20277;-85
2023/12/15 03:21:59;;;;;;;15.83;11.20;;;6.50;57.40;;;;;;5066000;28;20231;-85
2023/12/15 03:24:24;;;;;;;15.83;12.17;;;6.50;57.80;;;;;;5076555;28;20650;-85
2023/12/15 03:26:50;;;;;;;15.57;11.80;;;6.50;57.70;;;;;;5067541;28;20204;-85
2023/12/15 03:29:16;;;;;;;16.30;12.50;;;6.50;57.90;;;;;;5057360;28;20192;-86
2023/12/15 03:31:42;;;;;;;15.60;11.67;;;6.60;57.70;;;;;;5072174;28;20242;-85
2023/12/15 03:34:08;;;;;;;14.80;11.47;;;6.50;57.80;;;;;;5074521;28;20178;-85
2023/12/15 03:36:38;;;;;;;14.43;11.70;;;6.40;57.80;;;;;;5064946;28;20190;-85
2023/12/15 03:39:05;;;;;;;16.40;12.43;;;6.60;57.80;;;;;;5059432;28;20184;-85
2023/12/15 03:41:31;;;;;;;13.37;10.73;;;6.40;57.40;;;;;;5080149;28;20209;-85
2023/12/15 03:43:57;;;;;;;17.20;12.30;;;6.40;57.60;;;;;;5058220;28;20189;-86
2023/12/15 03:46:23;;;;;;;14.50;11.03;;;6.40;57.60;;;;;;5077079;28;20185;-85
2023/12/15 03:48:48;;;;;;;14.20;11.57;;;6.40;57.30;;;;;;5075561;28;20186;-85
2023/12/15 03:51:14;;;;;;;14.77;11.67;;;6.40;57.20;;;;;;5064597;28;20257;-85
2023/12/15 03:53:39;;;;;;;15.70;12.27;;;6.40;57.40;;;;;;5070626;28;20713;-85
2023/12/15 03:56:06;;;;;;;15.07;11.30;;;6.40;57.60;;;;;;5070450;28;20186;-85
2023/12/15 03:58:31;;;;;;;15.97;11.80;;;6.50;57.60;;;;;;5083754;28;20221;-85
2023/12/15 04:04:19;;;;;;;15.30;12.03;;;6.50;57.50;;;;;;5066064;28;20180;-85
2023/12/15 04:06:45;;;;;;;13.80;11.33;;;6.60;57.60;;;;;;5062275;28;20597;-85
2023/12/15 04:09:10;;;;;;;14.73;11.63;;;6.70;57.60;;;;;;5063474;28;20181;-85
2023/12/15 04:11:36;;;;;;;15.20;11.77;;;6.70;57.50;;;;;;5065984;28;20216;-85
2023/12/15 04:14:03;;;;;;;16.43;11.93;;;6.60;57.30;;;;;;5068341;28;20549;-86
2023/12/15 04:16:29;;;;;;;18.47;11.73;;;6.80;57.40;;;;;;5084353;28;20188;-85
2023/12/15 04:18:55;;;;;;;25.50;14.23;;;6.60;57.20;;;;;;5061815;28;20190;-85
2023/12/15 04:21:20;;;;;;;21.03;13.20;;;6.60;57.20;;;;;;5059251;28;20192;-85
2023/12/15 04:23:46;;;;;;;17.83;12.70;;;6.60;57.20;;;;;;5070896;28;20224;-85
2023/12/15 04:26:12;;;;;;;17.63;13.07;;;6.70;57.40;;;;;;5068388;28;20204;-85
2023/12/15 04:28:37;;;;;;;16.50;11.63;;;6.60;57.40;;;;;;5056466;28;20681;-85
2023/12/15 04:31:03;;;;;;;16.07;12.53;;;6.70;57.50;;;;;;5057468;28;20213;-85
2023/12/15 04:33:29;;;;;;;14.90;11.93;;;6.70;57.50;;;;;;5062624;28;20611;-85
2023/12/15 04:35:54;;;;;;;15.37;11.63;;;6.70;57.60;;;;;;5065853;28;20704;-85
2023/12/15 04:38:20;;;;;;;15.53;11.33;;;6.70;57.60;;;;;;5083833;28;20177;-85
2023/12/15 04:40:45;;;;;;;16.17;11.73;;;6.70;57.20;;;;;;5072128;28;20174;-85
2023/12/15 04:43:11;;;;;;;15.30;12.40;;;6.70;57.20;;;;;;5057725;28;20264;-85
2023/12/15 04:45:37;;;;;;;19.23;13.70;;;6.70;57.10;;;;;;5063880;28;20186;-85
2023/12/15 04:48:03;;;;;;;17.77;13.67;;;6.70;57.00;;;;;;5059002;28;20546;-85
2023/12/15 04:50:29;;;;;;;19.53;14.27;;;6.60;57.30;;;;;;5054392;28;20212;-85
2023/12/15 04:52:55;;;;;;;19.93;14.53;;;6.70;58.00;;;;;;5054433;28;20201;-85
2023/12/15 04:55:20;;;;;;;17.87;13.67;;;6.80;57.50;;;;;;5081557;28;20203;-85
2023/12/15 04:57:46;;;;;;;17.90;13.60;;;6.70;57.30;;;;;;5064368;28;20232;-85
2023/12/15 05:00:12;;;;;;;18.83;13.90;;;6.70;57.40;;;;;;5081427;28;20189;-87
2023/12/15 05:02:37;;;;;;;18.10;13.70;;;6.70;57.40;;;;;;5060452;28;20216;-86
2023/12/15 05:05:03;;;;;;;19.70;13.13;;;6.80;57.60;;;;;;5070296;28;20201;-86
2023/12/15 05:07:29;;;;;;;16.53;12.30;;;6.70;57.60;;;;;;5073975;28;20622;-86
2023/12/15 05:09:54;;;;;;;18.70;13.20;;;6.70;57.60;;;;;;5062695;28;20304;-86
2023/12/15 05:12:20;;;;;;;18.43;13.37;;;6.70;57.50;;;;;;5070217;28;20176;-85
2023/12/15 05:14:46;;;;;;;17.57;13.00;;;6.70;57.40;;;;;;5083448;28;20688;-87
2023/12/15 05:17:11;;;;;;;16.93;13.17;;;6.70;57.30;;;;;;5067943;28;20527;-86
2023/12/15 05:19:37;;;;;;;17.30;12.97;;;6.70;57.40;;;;;;5072289;28;20177;-87
2023/12/15 05:22:03;;;;;;;17.47;13.47;;;6.70;57.40;;;;;;5056144;28;20272;-86
2023/12/15 05:24:31;;;;;;;17.80;12.17;;;6.80;57.40;;;;;;5053799;28;20178;-87
2023/12/15 05:26:57;;;;;;;15.80;13.00;;;6.80;57.30;;;;;;5059005;28;20216;-86
2023/12/15 05:29:23;;;;;;;16.70;12.90;;;6.70;57.30;;;;;;5086618;28;20204;-86
2023/12/15 05:31:48;;;;;;;18.53;14.23;;;6.80;57.60;;;;;;5082614;28;20216;-86
2023/12/15 05:34:14;;;;;;;17.07;13.03;;;6.80;57.60;;;;;;5083206;28;20585;-86
2023/12/15 05:36:40;;;;;;;18.13;13.87;;;6.90;57.80;;;;;;5059410;28;20181;-86
2023/12/15 05:39:05;;;;;;;17.50;13.00;;;6.90;57.70;;;;;;5058186;28;20187;-85
2023/12/15 05:41:31;;;;;;;16.30;13.17;;;6.80;57.60;;;;;;5054498;28;20177;-87
2023/12/15 05:43:57;;;;;;;17.83;13.37;;;6.80;57.50;;;;;;5086679;28;20185;-86
2023/12/15 05:46:22;;;;;;;18.73;13.73;;;6.80;57.60;;;;;;5077248;28;20654;-87
2023/12/15 05:48:48;;;;;;;19.17;13.67;;;6.80;57.70;;;;;;5069781;28;20180;-86
2023/12/15 05:51:13;;;;;;;21.70;13.93;;;6.80;57.70;;;;;;5059374;28;20217;-87
2023/12/15 05:53:39;;;;;;;18.63;14.27;;;6.90;57.70;;;;;;5068372;28;20185;-86
2023/12/15 05:56:05;;;;;;;19.70;14.73;;;6.90;57.80;;;;;;5085597;28;20192;-86
2023/12/15 05:58:31;;;;;;;19.73;14.33;;;6.90;57.80;;;;;;5067976;28;20278;-87
2023/12/15 06:00:56;;;;;;;18.87;13.97;;;6.90;57.80;;;;;;5070018;28;20181;-87
2023/12/15 06:03:22;;;;;;;17.83;14.07;;;6.90;57.70;;;;;;5068952;28;20205;-87
2023/12/15 06:05:48;;;;;;;19.47;14.23;;;7.00;57.80;;;;;;5085912;28;20184;-86
2023/12/15 06:08:13;;;;;;;18.03;13.47;;;7.00;57.80;;;;;;5069319;28;20169;-85
2023/12/15 06:10:40;;;;;;;20.90;13.63;;;7.00;57.90;;;;;;5061363;28;20213;-86
2023/12/15 06:13:06;;;;;;;17.97;13.63;;;7.00;57.90;;;;;;5073877;28;20757;-85
2023/12/15 06:15:32;;;;;;;18.30;13.50;;;7.00;57.80;;;;;;5066838;28;20185;-87
2023/12/15 06:17:57;;;;;;;20.27;15.17;;;7.00;57.70;;;;;;5069600;28;20200;-87
2023/12/15 06:20:23;;;;;;;20.57;14.73;;;7.00;57.80;;;;;;5069474;28;20180;-86
2023/12/15 06:22:48;;;;;;;19.90;14.43;;;7.10;57.70;;;;;;5069671;28;20646;-86
2023/12/15 06:25:14;;;;;;;20.90;15.23;;;7.00;57.70;;;;;;5068799;28;20181;-87
2023/12/15 06:27:39;;;;;;;20.60;15.13;;;7.00;57.70;;;;;;5069879;28;20537;-85
2023/12/15 06:30:05;;;;;;;18.47;14.40;;;7.00;57.70;;;;;;5080484;28;20262;-86
2023/12/15 06:32:31;;;;;;;20.23;15.00;;;7.00;57.70;;;;;;5069783;28;20637;-85
2023/12/15 06:34:56;;;;;;;19.67;14.20;;;7.10;57.80;;;;;;5057060;28;20185;-85
2023/12/15 06:37:22;;;;;;;18.50;14.57;;;7.10;57.60;;;;;;5064885;28;20185;-87
2023/12/15 06:39:50;;;;;;;19.97;15.63;;;7.30;57.80;;;;;;5069974;28;20641;-85
2023/12/15 06:42:15;;;;;;;21.03;15.40;;;7.20;57.50;;;;;;5082752;28;20188;-86
2023/12/15 06:44:41;;;;;;;19.13;15.17;;;7.10;57.40;;;;;;5052107;28;20180;-85
2023/12/15 06:47:06;;;;;;;19.57;14.97;;;7.10;57.50;;;;;;5076276;28;20272;-85
2023/12/15 06:49:32;;;;;;;19.53;15.03;;;7.20;57.60;;;;;;5057645;28;20190;-86
2023/12/15 06:52:01;;;;;;;23.40;16.13;;;7.10;57.60;;;;;;5055976;28;20235;-86
2023/12/15 06:54:26;;;;;;;21.97;15.30;;;7.10;57.50;;;;;;5058875;28;20189;-86
2023/12/15 06:56:52;;;;;;;22.60;15.10;;;7.10;57.40;;;;;;5063797;28;20193;-86
2023/12/15 06:59:18;;;;;;;23.27;16.03;;;7.10;57.50;;;;;;5057665;28;20217;-86
2023/12/15 07:01:43;;;;;;;20.37;15.47;;;7.20;57.70;;;;;;5054895;28;20666;-85
2023/12/15 07:04:09;;;;;;;22.60;15.53;;;7.10;57.60;;;;;;5062788;28;20189;-86
2023/12/15 07:06:35;;;;;;;19.43;15.70;;;7.10;57.70;;;;;;5056524;28;20189;-86
2023/12/15 07:09:00;;;;;;;21.57;16.27;;;7.10;57.80;;;;;;5061310;28;20541;-86
2023/12/15 07:11:26;;;;;;;23.70;17.07;;;7.10;58.00;;;;;;5061050;28;20208;-86
2023/12/15 07:13:51;;;;;;;20.80;16.17;;;7.10;57.90;;;;;;5076405;28;20184;-86
2023/12/15 07:16:17;;;;;;;22.63;16.20;;;7.10;57.80;;;;;;5060275;28;20182;-86
2023/12/15 07:18:43;;;;;;;21.50;15.90;;;7.20;58.00;;;;;;5056558;28;20752;-85
2023/12/15 07:21:09;;;;;;;21.47;15.47;;;7.10;58.00;;;;;;5054635;28;20181;-87
2023/12/15 07:23:35;;;;;;;23.50;17.20;;;7.20;57.90;;;;;;5058213;28;20535;-87
2023/12/15 07:26:01;;;;;;;23.23;16.77;;;7.20;57.70;;;;;;5073577;28;20182;-87
2023/12/15 07:28:26;;;;;;;22.30;14.90;;;7.20;57.60;;;;;;5074059;28;20186;-86
2023/12/15 07:30:52;;;;;;;23.20;16.47;;;7.20;57.60;;;;;;5059494;28;20228;-87
2023/12/15 07:33:18;;;;;;;20.60;15.63;;;7.10;57.60;;;;;;5059745;28;20189;-86
2023/12/15 07:35:43;;;;;;;22.40;16.43;;;7.10;57.50;;;;;;5058993;28;20194;-85
2023/12/15 07:38:09;;;;;;;20.03;15.73;;;7.20;57.40;;;;;;5058938;28;20170;-85
2023/12/15 07:40:35;;;;;;;21.50;16.50;;;7.10;57.40;;;;;;5055665;28;20200;-87
2023/12/15 07:43:01;;;;;;;22.37;15.90;;;7.20;57.50;;;;;;5060895;28;20181;-85
2023/12/15 07:45:26;;;;;;;25.07;17.07;;;7.10;57.40;;;;;;5059820;28;20211;-85
2023/12/15 07:47:53;;;;;;;21.43;16.23;;;7.10;57.30;;;;;;5055137;28;20189;-85
2023/12/15 07:50:19;;;;;;;23.57;16.77;;;7.10;57.00;;;;;;5055345;28;20266;-85
2023/12/15 07:52:45;;;;;;;25.40;18.17;;;7.20;57.20;;;;;;5057191;28;21755;-85
2023/12/15 07:55:11;;;;;;;23.00;16.80;;;7.10;57.00;;;;;;5053093;28;20189;-84
2023/12/15 07:57:36;;;;;;;21.37;16.63;;;7.10;56.60;;;;;;5071012;28;20184;-86
2023/12/15 08:00:05;;;;;;;23.77;17.07;;;7.10;56.70;;;;;;5056404;28;20201;-86
2023/12/15 08:02:31;;;;;;;20.87;16.80;;;7.00;56.60;;;;;;5050544;28;20180;-85
2023/12/15 08:04:56;;;;;;;22.83;17.13;;;7.00;56.50;;;;;;5059610;28;20177;-84
2023/12/15 08:07:22;;;;;;;23.13;17.23;;;7.10;56.60;;;;;;5057015;28;20657;-86
2023/12/15 08:09:48;;;;;;;22.57;15.93;;;7.10;56.60;;;;;;5058527;28;20205;-88
2023/12/15 08:12:15;;;;;;;24.30;17.27;;;6.90;56.60;;;;;;5056380;28;20179;-88
2023/12/15 08:14:41;;;;;;;23.40;16.73;;;6.90;56.40;;;;;;5060651;28;20206;-87
2023/12/15 08:17:07;;;;;;;24.53;17.37;;;6.90;56.60;;;;;;5056290;28;20224;-86
2023/12/15 08:19:32;;;;;;;25.47;19.20;;;6.90;56.70;;;;;;5059232;28;20204;-84
2023/12/15 08:21:59;;;;;;;23.83;17.47;;;6.90;56.60;;;;;;5058750;28;20923;-87
2023/12/15 08:24:25;;;;;;;22.70;17.67;;;7.00;56.80;;;;;;5061164;28;20173;-84
2023/12/15 08:26:53;;;;;;;24.50;18.97;;;6.90;56.80;;;;;;5060115;28;20431;-88
2023/12/15 08:29:19;;;;;;;24.93;18.20;;;6.90;57.00;;;;;;5059342;28;20184;-85
2023/12/15 08:31:45;;;;;;;25.23;19.23;;;6.80;57.00;;;;;;5058578;28;20213;-88
2023/12/15 08:34:11;;;;;;;26.40;18.40;;;7.00;57.30;;;;;;5056371;28;20178;-88
2023/12/15 08:36:36;;;;;;;25.90;18.57;;;7.00;57.60;;;;;;5059960;28;20235;-85
2023/12/15 08:39:02;;;;;;;29.33;19.93;;;7.00;57.50;;;;;;5060330;28;20186;-87
2023/12/15 08:41:27;;;;;;;30.40;20.23;;;6.90;57.30;;;;;;5060860;28;20361;-85
2023/12/15 08:43:53;;;;;;;30.23;19.93;;;6.80;57.30;;;;;;5073740;28;20185;-88
2023/12/15 08:46:19;;;;;;;29.97;20.63;;;6.80;57.60;;;;;;5060418;28;20189;-86
2023/12/15 08:48:44;;;;;;;25.63;19.50;;;7.00;57.90;;;;;;5052311;28;20181;-86
2023/12/15 08:51:10;;;;;;;30.90;21.53;;;7.00;58.00;;;;;;5053813;28;20216;-85
2023/12/15 08:53:35;;;;;;;48.03;22.43;;;6.90;58.00;;;;;;5056971;28;20188;-85
2023/12/15 08:56:02;;;;;;;32.37;22.57;;;7.00;58.10;;;;;;5071589;28;20177;-87
2023/12/15 08:58:28;;;;;;;30.20;21.73;;;6.90;58.00;;;;;;5055733;28;20900;-86
2023/12/15 09:00:54;;;;;;;34.70;21.80;;;7.00;58.00;;;;;;5059057;28;20192;-85
2023/12/15 09:03:20;;;;;;;29.27;20.93;;;6.90;58.10;;;;;;5055069;28;20566;-86
2023/12/15 09:05:45;;;;;;;34.93;22.57;;;6.90;58.20;;;;;;5060953;28;20190;-85
2023/12/15 09:08:12;;;;;;;29.93;21.67;;;6.90;58.40;;;;;;5060736;28;20590;-87
2023/12/15 09:10:43;;;;;;;33.97;23.27;;;7.10;58.50;;;;;;5060275;28;20210;-87
2023/12/15 09:13:09;;;;;;;30.40;22.13;;;7.00;58.40;;;;;;5057216;28;20205;-86
2023/12/15 09:15:35;;;;;;;31.17;22.30;;;7.00;58.40;;;;;;5059118;28;20242;-86
2023/12/15 09:18:01;;;;;;;36.57;22.47;;;7.00;58.30;;;;;;5054926;28;20577;-87
2023/12/15 09:20:27;;;;;;;34.03;23.93;;;7.00;58.20;;;;;;5056232;28;20209;-85
2023/12/15 09:22:54;;;;;;;28.53;21.63;;;7.00;58.40;;;;;;5059904;28;20240;-88
2023/12/15 09:25:20;;;;;;;34.20;23.87;;;7.10;58.60;;;;;;5057908;28;20186;-85
2023/12/15 09:27:45;;;;;;;30.77;23.00;;;7.00;58.50;;;;;;5057495;28;20186;-86
2023/12/15 09:30:11;;;;;;;32.77;23.33;;;7.10;58.60;;;;;;5056380;28;20674;-86
2023/12/15 09:32:37;;;;;;;32.13;23.03;;;7.00;58.60;;;;;;5056601;28;20173;-85
2023/12/15 09:35:03;;;;;;;37.90;23.67;;;7.10;58.60;;;;;;5059385;28;20240;-85
2023/12/15 09:37:29;;;;;;;32.43;23.83;;;7.00;58.40;;;;;;5059644;28;20177;-87
2023/12/15 09:39:55;;;;;;;38.80;26.17;;;7.00;58.50;;;;;;5055820;28;20562;-85
2023/12/15 09:42:23;;;;;;;33.60;25.00;;;7.00;58.50;;;;;;5058646;28;20185;-85
2023/12/15 09:44:49;;;;;;;35.57;25.37;;;7.00;58.70;;;;;;5074438;28;20180;-85
2023/12/15 09:47:17;;;;;;;36.93;26.47;;;7.00;58.70;;;;;;5056286;28;20631;-86
2023/12/15 09:49:45;;;;;;;39.67;26.77;;;7.00;58.90;;;;;;5058366;28;20717;-87
2023/12/15 09:52:13;;;;;;;38.23;26.87;;;7.00;58.90;;;;;;5056176;28;20188;-87
2023/12/15 09:54:39;;;;;;;39.00;25.33;;;7.10;58.80;;;;;;5054294;28;20762;-85
2023/12/15 09:57:05;;;;;;;37.60;25.93;;;7.20;59.10;;;;;;5057774;28;20181;-87
2023/12/15 09:59:31;;;;;;;37.87;26.07;;;7.30;59.10;;;;;;5061746;28;20283;-87
2023/12/15 10:01:56;;;;;;;37.83;26.80;;;7.10;58.90;;;;;;5055592;28;20201;-87
2023/12/15 10:04:22;;;;;;;37.73;26.20;;;7.10;59.00;;;;;;5057332;28;20204;-87
2023/12/15 10:06:48;;;;;;;37.20;26.77;;;7.20;59.10;;;;;;5058129;28;20185;-84
2023/12/15 10:09:14;;;;;;;38.57;26.27;;;7.30;59.20;;;;;;5054908;28;20192;-86
2023/12/15 10:11:44;;;;;;;38.70;26.27;;;7.30;59.10;;;;;;5055461;28;20228;-86
2023/12/15 10:14:11;;;;;;;34.60;25.17;;;7.10;58.90;;;;;;5057967;28;20170;-85
2023/12/15 10:16:37;;;;;;;37.97;27.47;;;7.20;59.20;;;;;;5056790;28;20177;-88
2023/12/15 10:19:05;;;;;;;36.70;24.80;;;7.20;59.40;;;;;;5052379;28;20646;-84
2023/12/15 10:21:32;;;;;;;42.13;26.47;;;7.30;59.30;;;;;;5061554;28;20702;-84
2023/12/15 10:23:59;;;;;;;35.87;25.57;;;7.40;59.20;;;;;;5061078;28;20637;-86
2023/12/15 10:26:26;;;;;;;39.07;26.17;;;7.20;59.60;;;;;;5060954;28;20235;-85
2023/12/15 10:28:53;;;;;;;36.37;26.90;;;7.20;59.10;;;;;;5061225;28;20709;-85
2023/12/15 10:31:18;;;;;;;37.70;27.93;;;7.20;59.10;;;;;;5060805;28;20241;-88
2023/12/15 10:33:45;;;;;;;39.87;28.13;;;7.40;59.20;;;;;;5058184;28;20201;-87
2023/12/15 10:36:13;;;;;;;36.70;28.50;;;7.20;59.10;;;;;;5063125;28;20565;-87
2023/12/15 10:38:39;;;;;;;39.97;28.13;;;7.20;59.10;;;;;;5058535;28;20182;-85
2023/12/15 10:41:07;;;;;;;35.73;27.23;;;7.30;59.40;;;;;;5058054;28;20209;-85
2023/12/15 10:43:34;;;;;;;39.03;27.63;;;7.30;59.30;;;;;;5061271;28;20505;-86
2023/12/15 10:46:01;;;;;;;35.60;27.70;;;7.30;59.10;;;;;;5059278;28;20217;-87
2023/12/15 10:48:30;;;;;;;38.87;28.00;;;7.30;59.20;;;;;;5058163;28;20185;-87
2023/12/15 10:50:56;;;;;;;41.93;28.50;;;7.30;59.30;;;;;;5059404;28;20683;-88
2023/12/15 10:53:24;;;;;;;36.33;28.63;;;7.30;59.30;;;;;;5075918;28;20181;-85
2023/12/15 10:55:51;;;;;;;39.27;29.03;;;7.30;59.20;;;;;;5058801;28;20284;-85
2023/12/15 10:58:17;;;;;;;38.10;28.53;;;7.30;59.10;;;;;;5058939;28;20226;-87
2023/12/15 11:00:42;;;;;;;36.60;26.93;;;7.20;59.00;;;;;;5062877;28;20205;-87
2023/12/15 11:03:13;;;;;;;39.03;28.17;;;7.30;59.40;;;;;;5057460;28;20213;-86
2023/12/15 11:05:41;;;;;;;38.67;28.67;;;7.40;59.50;;;;;;5056566;28;20213;-86
2023/12/15 11:08:08;;;;;;;36.67;28.53;;;7.30;59.30;;;;;;5054465;28;20725;-86
2023/12/15 11:10:35;;;;;;;41.23;26.63;;;7.30;59.40;;;;;;5058679;28;20216;-85
2023/12/15 11:13:01;;;;;;;37.90;27.97;;;7.40;59.60;;;;;;5054184;28;20971;-85
2023/12/15 11:15:27;;;;;;;36.17;26.80;;;7.50;59.80;;;;;;5060985;28;20184;-85
2023/12/15 11:17:58;;;;;;;37.07;27.00;;;7.60;59.70;;;;;;5060516;28;20618;-87
2023/12/15 11:20:25;;;;;;;37.10;27.83;;;7.60;59.50;;;;;;5058861;28;20178;-87
2023/12/15 11:22:58;;;;;;;38.10;27.40;;;7.50;59.60;;;;;;5063162;28;20199;-85
2023/12/15 11:25:25;;;;;;;36.60;28.13;;;7.50;59.60;;;;;;5072422;28;20181;-87
2023/12/15 11:28:21;;;;;;;32.57;26.37;;;7.50;59.50;;;;;;5059343;28;20661;-86
2023/12/15 11:30:51;;;;;;;33.90;26.00;;;7.50;59.50;;;;;;5050561;28;20274;-86
2023/12/15 11:33:32;;;;;;;30.37;24.93;;;7.50;59.40;;;;;;5059488;28;20185;-87
2023/12/15 11:36:09;;;;;;;34.57;25.73;;;7.50;59.20;;;;;;5078021;28;20170;-84
2023/12/15 11:38:37;;;;;;;35.63;27.20;;;7.40;59.00;;;;;;5056991;28;20959;-86
2023/12/15 11:41:03;;;;;;;36.00;27.70;;;7.30;58.90;;;;;;5057611;28;20212;-84
2023/12/15 11:43:33;;;;;;;35.70;28.13;;;7.40;59.20;;;;;;5056950;28;20189;-85
2023/12/15 11:45:59;;;;;;;35.63;27.73;;;7.40;59.20;;;;;;5054424;28;20190;-84
2023/12/15 11:48:25;;;;;;;36.00;27.93;;;7.40;59.10;;;;;;5068668;28;20243;-85
2023/12/15 11:50:51;;;;;;;35.33;28.77;;;7.30;59.00;;;;;;5063402;28;20300;-86
2023/12/15 11:53:18;;;;;;;37.30;28.53;;;7.30;59.10;;;;;;5046945;28;20602;-84
2023/12/15 11:55:46;;;;;;;36.90;26.87;;;7.30;59.40;;;;;;5055484;28;20194;-84
2023/12/15 11:58:15;;;;;;;35.50;28.83;;;7.30;59.40;;;;;;5054816;28;20224;-85
2023/12/15 12:00:44;;;;;;;32.13;27.20;;;7.40;59.50;;;;;;5054885;28;20246;-86
2023/12/15 12:03:15;;;;;;;34.77;28.40;;;7.40;59.40;;;;;;5052175;28;20212;-85
2023/12/15 12:05:42;;;;;;;38.83;28.60;;;7.50;59.40;;;;;;5055464;28;20161;-84
2023/12/15 12:08:09;;;;;;;36.47;27.07;;;7.40;59.20;;;;;;5055146;28;20189;-84
2023/12/15 12:10:40;;;;;;;35.07;26.90;;;7.40;59.20;;;;;;5056122;28;20217;-83
2023/12/15 12:13:07;;;;;;;37.27;28.13;;;7.40;59.20;;;;;;5056275;28;20225;-84
2023/12/15 12:15:51;;;;;;;35.30;27.33;;;7.40;59.20;;;;;;5054463;28;20192;-87
2023/12/15 12:18:22;;;;;;;35.83;27.17;;;7.40;59.30;;;;;;5051623;28;24479;-87
2023/12/15 12:20:48;;;;;;;33.73;27.67;;;7.50;59.20;;;;;;5058228;28;20182;-88
2023/12/15 12:23:16;;;;;;;37.47;28.97;;;7.50;59.20;;;;;;5061784;28;20188;-86
2023/12/15 12:25:47;;;;;;;40.17;30.83;;;7.50;59.20;;;;;;5059626;28;21462;-86
2023/12/15 12:28:16;;;;;;;34.53;28.07;;;7.50;59.20;;;;;;5058267;28;20186;-88
2023/12/15 12:30:42;;;;;;;36.47;28.93;;;7.50;59.20;;;;;;5059135;28;20391;-89
2023/12/15 12:33:07;;;;;;;37.50;29.23;;;7.50;59.00;;;;;;5053603;28;20650;-88
2023/12/15 12:35:33;;;;;;;39.07;29.23;;;7.40;58.90;;;;;;5055607;28;20196;-85
2023/12/15 12:37:59;;;;;;;36.70;29.00;;;7.40;58.70;;;;;;5055358;28;20612;-87
2023/12/15 12:40:24;;;;;;;39.13;29.67;;;7.50;58.80;;;;;;5058082;28;20613;-87
2023/12/15 12:42:50;;;;;;;43.87;30.83;;;7.30;58.60;;;;;;5054922;28;20246;-89